Time;durP1;ratioP1;P1;durP2;ratioP2;P2;SDS_P1;SDS_P2;PMS_P1;PMS_P2;Temp;Humidity;BMP_temperature;BMP_pressure;BME280_temperature;BME280_humidity;BME280_pressure;Samples;Min_cycle;Max_cycle;Signal;HPM_P1;HPM_P2
2022/10/20 00:01:50;;;;;;;0.50;0.47;;;;;;;7.80;74.64;100528.75;5114780;28;20036;-67
2022/10/20 00:04:20;;;;;;;0.40;0.40;;;;;;;7.71;74.27;100528.53;5114953;28;20401;-66
2022/10/20 00:06:49;;;;;;;0.90;0.90;;;;;;;7.55;75.27;100528.97;5114713;28;20039;-67
2022/10/20 00:09:18;;;;;;;0.38;0.38;;;;;;;7.59;75.03;100527.34;5113737;28;20039;-67
2022/10/20 00:11:47;;;;;;;0.50;0.50;;;;;;;7.60;74.77;100536.72;5114600;28;20118;-67
2022/10/20 00:14:16;;;;;;;0.55;0.55;;;;;;;7.61;75.31;100529.13;5114493;28;20054;-66
2022/10/20 00:16:44;;;;;;;0.43;0.43;;;;;;;7.62;75.57;100528.31;5114756;28;20425;-66
2022/10/20 00:19:13;;;;;;;0.40;0.40;;;;;;;7.56;75.17;100534.94;5114377;28;20047;-67
2022/10/20 00:21:43;;;;;;;0.30;0.30;;;;;;;7.60;75.42;100524.88;5114439;28;20044;-66
2022/10/20 00:24:12;;;;;;;0.77;0.77;;;;;;;7.73;74.77;100531.09;5114736;27;20492;-66
2022/10/20 00:26:41;;;;;;;0.40;0.40;;;;;;;7.81;74.48;100533.00;5114574;28;20523;-67
2022/10/20 00:29:10;;;;;;;0.55;0.55;;;;;;;7.87;74.83;100522.97;5114637;28;20071;-66
2022/10/20 00:31:39;;;;;;;0.40;0.40;;;;;;;7.90;74.81;100528.13;5114548;28;20370;-67
2022/10/20 00:34:07;;;;;;;0.50;0.50;;;;;;;7.79;74.60;100533.78;5114219;28;20044;-66
2022/10/20 00:36:36;;;;;;;2.45;0.90;;;;;;;7.62;75.11;100529.97;5114389;28;20047;-66
2022/10/20 00:39:06;;;;;;;0.40;0.40;;;;;;;7.50;74.51;100525.47;5114436;28;20435;-66
2022/10/20 00:41:35;;;;;;;0.40;0.40;;;;;;;7.41;75.54;100535.41;5114235;28;20503;-66
2022/10/20 00:44:35;;;;;;;1.20;1.10;;;;;;;7.39;75.12;100532.81;5112992;28;20035;-67
2022/10/20 00:47:04;;;;;;;0.65;0.65;;;;;;;7.32;74.81;100535.13;5113720;28;20046;-66
2022/10/20 00:49:32;;;;;;;1.33;1.23;;;;;;;7.09;75.74;100536.22;5114342;28;20035;-65
2022/10/20 00:52:01;;;;;;;0.38;0.38;;;;;;;6.86;75.47;100542.34;5113825;28;20044;-65
2022/10/20 00:54:32;;;;;;;0.60;0.60;;;;;;;6.74;76.28;100538.66;5114016;28;20050;-65
2022/10/20 00:57:01;;;;;;;0.77;0.77;;;;;;;6.68;76.24;100535.94;5112791;28;20051;-65
2022/10/20 00:59:37;;;;;;;3.00;0.77;;;;;;;6.81;77.50;100533.75;5113919;28;20082;-65
2022/10/20 01:02:09;;;;;;;0.35;0.35;;;;;;;6.86;78.18;100532.22;5114271;28;20435;-65
2022/10/20 01:04:38;;;;;;;0.75;0.75;;;;;;;6.94;78.39;100541.75;5114279;28;20051;-66
2022/10/20 01:07:07;;;;;;;0.40;0.40;;;;;;;6.97;78.17;100536.75;5113854;28;20059;-66
2022/10/20 01:09:37;;;;;;;0.30;0.30;;;;;;;7.00;78.60;100525.84;5114192;28;20043;-65
2022/10/20 01:12:20;;;;;;;0.50;0.50;;;;;;;6.95;78.90;100505.41;5113872;28;20051;-66
2022/10/20 01:14:58;;;;;;;0.30;0.30;;;;;;;7.26;79.06;100540.06;5113861;28;20100;-66
2022/10/20 01:17:34;;;;;;;0.30;0.30;;;;;;;7.37;78.78;100538.66;5113781;28;20054;-66
2022/10/20 01:20:23;;;;;;;3.45;1.33;;;;;;;7.48;79.11;100536.41;5113777;28;20130;-66
2022/10/20 01:23:22;;;;;;;0.20;0.20;;;;;;;7.42;78.82;100532.03;5114097;28;20054;-65
2022/10/20 01:26:21;;;;;;;0.32;0.32;;;;;;;7.47;78.57;100529.59;5113698;28;20043;-66
2022/10/20 01:28:56;;;;;;;0.32;0.32;;;;;;;7.59;78.52;100530.75;5113902;28;20039;-66
2022/10/20 01:31:33;;;;;;;0.40;0.40;;;;;;;7.66;78.21;100530.09;5114009;28;20382;-66
2022/10/20 01:34:11;;;;;;;0.47;0.47;;;;;;;7.71;77.92;100525.13;5112515;28;20051;-65
2022/10/20 01:36:47;;;;;;;0.55;0.55;;;;;;;7.74;77.99;100533.69;5113982;28;20051;-66
2022/10/20 01:39:23;;;;;;;0.50;0.50;;;;;;;7.54;76.66;100527.25;5113455;28;20485;-65
2022/10/20 01:41:56;;;;;;;0.93;0.70;;;;;;;7.34;77.26;100521.66;5113583;28;20050;-65
2022/10/20 01:44:30;;;;;;;0.52;0.52;;;;;;;7.28;77.39;100526.59;5113603;28;20105;-66
2022/10/20 01:47:01;;;;;;;1.17;0.73;;;;;;;7.26;77.27;100535.84;5113836;28;20043;-65
2022/10/20 01:49:30;;;;;;;0.32;0.32;;;;;;;7.19;77.38;100538.19;5112312;28;20039;-66
2022/10/20 01:51:58;;;;;;;0.80;0.80;;;;;;;7.13;77.33;100533.81;5113059;28;20044;-66
2022/10/20 01:54:28;;;;;;;1.50;1.40;;;;;;;7.05;76.95;100534.44;5113760;28;20047;-65
2022/10/20 01:57:19;;;;;;;1.02;0.82;;;;;;;6.93;77.34;100539.16;5113798;28;20126;-66
2022/10/20 02:00:01;;;;;;;0.50;0.50;;;;;;;7.01;77.71;100538.56;5114428;28;20083;-65
2022/10/20 02:02:43;;;;;;;0.40;0.40;;;;;;;7.02;77.65;100534.34;5117549;28;20074;-67
2022/10/20 02:05:34;;;;;;;0.73;0.45;;;;;;;6.97;77.69;100535.88;5117682;28;20079;-65
2022/10/20 02:08:12;;;;;;;1.95;0.88;;;;;;;6.83;77.53;100542.25;5116997;28;20048;-66
2022/10/20 02:10:46;;;;;;;1.38;1.13;;;;;;;6.83;77.82;100547.34;5116922;28;20044;-65
2022/10/20 02:13:16;;;;;;;0.50;0.50;;;;;;;6.79;77.92;100550.63;5116937;28;20079;-66
2022/10/20 02:15:51;;;;;;;0.40;0.40;;;;;;;6.62;77.68;100538.28;5115734;28;20051;-65
2022/10/20 02:18:25;;;;;;;0.43;0.43;;;;;;;6.56;77.67;100538.13;5116757;28;20054;-65
2022/10/20 02:20:56;;;;;;;0.73;0.73;;;;;;;6.58;77.84;100545.78;5116758;28;20378;-66
2022/10/20 02:23:25;;;;;;;0.88;0.60;;;;;;;6.48;77.78;100541.25;5116751;28;20047;-65
2022/10/20 02:25:55;;;;;;;0.40;0.40;;;;;;;6.41;78.17;100544.41;5116639;28;20040;-65
2022/10/20 02:28:27;;;;;;;0.45;0.45;;;;;;;6.39;78.08;100543.50;5116664;28;20047;-66
2022/10/20 02:30:57;;;;;;;0.85;0.85;;;;;;;6.39;78.49;100549.44;5116577;28;20508;-66
2022/10/20 02:33:27;;;;;;;0.80;0.80;;;;;;;6.49;78.95;100533.69;5116920;28;20044;-65
2022/10/20 02:35:58;;;;;;;1.02;0.82;;;;;;;6.59;78.48;100538.22;5116802;28;20086;-66
2022/10/20 02:38:27;;;;;;;0.80;0.80;;;;;;;6.57;78.27;100533.94;5116434;28;20056;-65
2022/10/20 02:40:56;;;;;;;1.15;1.02;;;;;;;6.59;78.70;100533.16;5116318;27;20039;-65
2022/10/20 02:43:24;;;;;;;0.88;0.88;;;;;;;6.54;78.17;100529.63;5116641;28;20031;-65
2022/10/20 02:45:53;;;;;;;0.80;0.80;;;;;;;6.39;78.33;100531.69;5116264;28;20035;-65
2022/10/20 02:48:23;;;;;;;0.30;0.30;;;;;;;6.49;78.42;100526.09;5116225;28;20532;-65
2022/10/20 02:50:52;;;;;;;0.77;0.77;;;;;;;6.56;78.38;100528.00;5116464;28;20486;-66
2022/10/20 02:53:21;;;;;;;0.63;0.63;;;;;;;6.61;78.58;100536.59;5115894;28;20126;-65
2022/10/20 02:55:49;;;;;;;0.30;0.30;;;;;;;6.60;78.58;100529.78;5116717;28;20039;-66
2022/10/20 02:58:18;;;;;;;0.77;0.77;;;;;;;6.55;78.47;100536.41;5116324;28;20032;-66
2022/10/20 03:00:48;;;;;;;1.20;1.13;;;;;;;6.47;78.33;100548.00;5115898;28;20493;-65
2022/10/20 03:03:19;;;;;;;0.63;0.63;;;;;;;6.36;77.86;100535.84;5116306;28;20062;-66
2022/10/20 03:05:49;;;;;;;0.32;0.32;;;;;;;6.38;78.05;100542.66;5116245;28;20432;-65
2022/10/20 03:08:17;;;;;;;0.55;0.55;;;;;;;6.34;77.82;100540.84;5116169;28;20070;-66
2022/10/20 03:10:46;;;;;;;0.20;0.20;;;;;;;6.42;78.26;100541.94;5115684;28;20040;-66
2022/10/20 03:13:15;;;;;;;0.50;0.50;;;;;;;6.54;78.19;100534.69;5115692;28;20043;-66
2022/10/20 03:15:43;;;;;;;2.33;0.67;;;;;;;6.63;79.03;100539.16;5116220;27;20040;-66
2022/10/20 03:18:12;;;;;;;0.30;0.30;;;;;;;6.61;78.32;100541.66;5114642;28;20264;-65
2022/10/20 03:20:41;;;;;;;0.70;0.70;;;;;;;6.59;78.06;100539.91;5115477;28;20044;-66
2022/10/20 03:23:11;;;;;;;1.65;1.05;;;;;;;6.57;78.69;100544.94;5115516;28;20047;-66
2022/10/20 03:25:43;;;;;;;0.52;0.52;;;;;;;6.57;79.12;100542.41;5115534;28;20055;-66
2022/10/20 03:28:12;;;;;;;0.85;0.85;;;;;;;6.63;78.68;100537.50;5114526;28;20384;-67
2022/10/20 03:30:41;;;;;;;0.65;0.65;;;;;;;6.72;79.16;100550.44;5115376;28;20035;-66
2022/10/20 03:33:09;;;;;;;0.82;0.82;;;;;;;6.75;79.19;100548.00;5115547;27;20039;-66
2022/10/20 03:35:38;;;;;;;0.63;0.63;;;;;;;6.74;78.84;100542.88;5114468;28;20054;-65
2022/10/20 03:38:07;;;;;;;1.65;1.10;;;;;;;6.78;79.36;100548.88;5115205;28;20036;-66
2022/10/20 03:40:37;;;;;;;2.40;2.03;;;;;;;6.81;79.04;100548.97;5115083;28;20046;-66
2022/10/20 03:43:05;;;;;;;0.65;0.65;;;;;;;6.80;78.26;100553.19;5115100;28;20047;-66
2022/10/20 03:45:34;;;;;;;1.48;1.38;;;;;;;6.75;78.34;100548.00;5115067;28;20046;-66
2022/10/20 03:48:03;;;;;;;0.90;0.85;;;;;;;6.71;78.47;100556.34;5115011;28;20048;-65
2022/10/20 03:50:31;;;;;;;1.50;0.85;;;;;;;6.72;78.11;100552.97;5114971;28;20512;-65
2022/10/20 03:53:00;;;;;;;0.55;0.55;;;;;;;6.77;78.10;100557.34;5114737;28;20605;-66
2022/10/20 03:55:28;;;;;;;0.57;0.55;;;;;;;6.77;78.29;100557.34;5115209;27;20039;-66
2022/10/20 03:57:59;;;;;;;1.40;1.30;;;;;;;6.67;78.10;100551.97;5114883;28;20036;-66
2022/10/20 04:00:27;;;;;;;0.68;0.68;;;;;;;6.51;77.99;100549.81;5115287;28;20035;-66
2022/10/20 04:02:56;;;;;;;3.20;0.82;;;;;;;6.49;77.61;100551.44;5114672;28;20127;-66
2022/10/20 04:05:24;;;;;;;0.63;0.63;;;;;;;6.31;77.30;100545.81;5114739;28;20050;-65
2022/10/20 04:07:53;;;;;;;0.40;0.40;;;;;;;6.02;78.10;100541.56;5114647;28;20035;-66
2022/10/20 04:10:22;;;;;;;1.40;1.30;;;;;;;6.03;78.33;100543.25;5114722;28;20047;-65
2022/10/20 04:12:50;;;;;;;0.82;0.82;;;;;;;5.96;78.67;100546.41;5114431;28;20054;-66
2022/10/20 04:15:20;;;;;;;0.40;0.40;;;;;;;6.05;78.99;100536.56;5114549;28;20393;-66
2022/10/20 04:17:49;;;;;;;0.40;0.40;;;;;;;6.18;78.74;100543.75;5114495;28;20056;-65
2022/10/20 04:20:18;;;;;;;0.80;0.80;;;;;;;6.27;78.74;100538.06;5114369;28;20042;-66
2022/10/20 04:22:47;;;;;;;0.40;0.40;;;;;;;6.33;78.64;100540.81;5112798;28;20040;-66
2022/10/20 04:25:16;;;;;;;0.47;0.47;;;;;;;6.29;78.45;100534.78;5114665;28;20144;-65
2022/10/20 04:27:45;;;;;;;0.38;0.38;;;;;;;6.14;78.56;100547.00;5114702;28;20052;-66
2022/10/20 04:30:14;;;;;;;1.02;0.47;;;;;;;6.07;78.51;100545.94;5114676;28;20032;-66
2022/10/20 04:32:44;;;;;;;0.68;0.68;;;;;;;5.97;78.90;100541.38;5114623;28;20036;-66
2022/10/20 04:35:13;;;;;;;0.40;0.40;;;;;;;5.93;78.83;100537.03;5114493;28;20075;-66
2022/10/20 04:37:41;;;;;;;0.88;0.88;;;;;;;5.94;79.03;100535.38;5114184;28;20044;-66
2022/10/20 04:40:11;;;;;;;0.52;0.52;;;;;;;5.88;78.95;100532.63;5114378;28;20084;-65
2022/10/20 04:42:39;;;;;;;1.23;1.13;;;;;;;5.81;78.83;100530.69;5114460;28;20497;-65
2022/10/20 04:45:09;;;;;;;0.50;0.50;;;;;;;5.77;79.06;100524.69;5114342;28;20058;-65
2022/10/20 04:47:38;;;;;;;0.60;0.60;;;;;;;5.78;78.64;100528.09;5114427;28;20501;-66
2022/10/20 04:50:09;;;;;;;1.45;1.33;;;;;;;5.88;78.86;100519.97;5113970;28;20047;-65
2022/10/20 04:52:38;;;;;;;1.30;1.20;;;;;;;5.98;79.03;100519.44;5113614;28;20059;-66
2022/10/20 04:55:08;;;;;;;1.50;1.20;;;;;;;6.02;79.05;100521.28;5114230;28;20477;-66
2022/10/20 04:57:36;;;;;;;1.05;1.05;;;;;;;6.06;78.88;100525.63;5113962;28;20047;-66
2022/10/20 05:00:07;;;;;;;0.55;0.55;;;;;;;6.08;79.36;100526.53;5112686;28;20044;-66
2022/10/20 05:02:35;;;;;;;0.98;0.88;;;;;;;6.12;79.34;100522.44;5113961;28;20520;-66
2022/10/20 05:05:05;;;;;;;0.98;0.95;;;;;;;6.19;79.40;100529.41;5114161;28;20039;-66
2022/10/20 05:07:35;;;;;;;2.20;1.42;;;;;;;6.26;79.93;100532.16;5114172;28;20511;-66
2022/10/20 05:10:05;;;;;;;3.75;1.85;;;;;;;6.27;79.42;100533.00;5113911;28;20048;-65
2022/10/20 05:12:34;;;;;;;;;;;;;;;6.15;79.39;100528.44;5114262;28;20378;-65
2022/10/20 05:15:03;;;;;;;0.90;0.90;;;;;;;6.18;79.36;100520.06;5114058;28;19950;-65
2022/10/20 05:17:32;;;;;;;0.30;0.30;;;;;;;6.24;79.36;100522.81;5113781;28;20093;-65
2022/10/20 05:20:01;;;;;;;0.60;0.60;;;;;;;6.32;79.39;100512.06;5113770;28;20481;-66
2022/10/20 05:22:31;;;;;;;1.08;0.82;;;;;;;6.29;79.42;100517.03;5114721;28;20100;-66
2022/10/20 05:25:01;;;;;;;0.90;0.88;;;;;;;6.27;79.18;100522.88;5114026;28;20052;-66
2022/10/20 05:27:50;;;;;;;0.85;0.85;;;;;;;6.19;79.32;100530.25;5113170;28;20495;-66
2022/10/20 05:30:18;;;;;;;0.60;0.60;;;;;;;6.18;79.60;100531.06;5114015;28;20043;-65
2022/10/20 05:32:47;;;;;;;0.57;0.57;;;;;;;6.23;79.30;100537.13;5113962;28;20077;-65
2022/10/20 05:35:16;;;;;;;1.03;0.90;;;;;;;6.30;79.22;100540.72;5115800;28;20043;-66
2022/10/20 05:37:45;;;;;;;1.00;0.98;;;;;;;6.37;79.11;100535.88;5117556;28;20520;-66
2022/10/20 05:40:15;;;;;;;0.38;0.38;;;;;;;6.47;79.35;100544.63;5117409;28;20040;-66
2022/10/20 05:42:43;;;;;;;2.47;1.20;;;;;;;6.40;79.03;100546.13;5117493;28;20100;-65
2022/10/20 05:45:12;;;;;;;0.75;0.75;;;;;;;6.41;78.87;100550.34;5117450;27;20048;-66
2022/10/20 05:47:41;;;;;;;2.53;1.45;;;;;;;6.46;79.21;100555.56;5117692;28;20104;-65
2022/10/20 05:50:11;;;;;;;3.95;1.58;;;;;;;6.47;78.78;100563.22;5117454;28;20036;-66
2022/10/20 05:52:40;;;;;;;0.95;0.80;;;;;;;6.55;78.85;100566.84;5117079;28;20079;-66
2022/10/20 05:55:10;;;;;;;0.50;0.50;;;;;;;6.61;79.42;100572.09;5117285;28;20085;-66
2022/10/20 05:57:40;;;;;;;2.42;2.08;;;;;;;6.57;78.37;100555.09;5117501;28;20085;-65
2022/10/20 06:00:10;;;;;;;1.92;1.60;;;;;;;6.49;78.53;100548.91;5117199;28;20130;-65
2022/10/20 06:02:39;;;;;;;0.63;0.63;;;;;;;6.49;78.75;100551.44;5117097;28;20130;-65
2022/10/20 06:05:07;;;;;;;0.40;0.40;;;;;;;6.59;78.70;100553.44;5117086;28;20050;-66
2022/10/20 06:07:36;;;;;;;0.65;0.65;;;;;;;6.73;78.46;100556.38;5117312;28;20077;-66
2022/10/20 06:10:06;;;;;;;0.95;0.85;;;;;;;6.93;78.68;100564.53;5116963;28;20050;-66
2022/10/20 06:12:35;;;;;;;0.73;0.73;;;;;;;6.96;78.10;100569.72;5117161;28;20047;-66
2022/10/20 06:15:07;;;;;;;0.77;0.77;;;;;;;7.02;77.87;100575.81;5117137;28;20050;-66
2022/10/20 06:17:36;;;;;;;1.25;1.15;;;;;;;7.16;77.55;100574.50;5116829;28;20047;-66
2022/10/20 06:20:06;;;;;;;0.50;0.50;;;;;;;7.27;77.90;100584.97;5117096;28;20043;-66
2022/10/20 06:22:34;;;;;;;2.28;2.03;;;;;;;7.46;77.22;100587.16;5116979;28;20434;-65
2022/10/20 06:25:04;;;;;;;1.30;1.20;;;;;;;7.61;77.48;100597.72;5116939;28;20036;-66
2022/10/20 06:27:33;;;;;;;0.63;0.63;;;;;;;7.72;76.96;100598.84;5116675;28;20558;-66
2022/10/20 06:30:01;;;;;;;1.88;1.77;;;;;;;7.68;77.15;100607.19;5116852;28;20439;-66
2022/10/20 06:32:31;;;;;;;0.70;0.70;;;;;;;7.51;76.15;100588.13;5116744;28;20378;-66
2022/10/20 06:35:00;;;;;;;4.30;1.70;;;;;;;7.67;76.44;100600.41;5116885;28;20096;-66
2022/10/20 06:37:29;;;;;;;0.68;0.68;;;;;;;7.86;75.98;100600.06;5116628;28;20482;-66
2022/10/20 06:39:58;;;;;;;0.68;0.68;;;;;;;7.91;76.26;100597.63;5108457;28;20052;-66
2022/10/20 06:42:27;;;;;;;0.88;0.88;;;;;;;7.97;75.94;100606.25;5116050;28;20126;-66
2022/10/20 06:44:57;;;;;;;0.65;0.65;;;;;;;7.99;76.23;100609.69;5116211;28;20042;-66
2022/10/20 06:47:26;;;;;;;0.98;0.98;;;;;;;8.06;75.97;100615.81;5116097;28;20047;-66
2022/10/20 06:49:56;;;;;;;3.30;2.42;;;;;;;8.17;75.71;100624.53;5116466;27;20038;-66
2022/10/20 06:52:25;;;;;;;1.48;1.27;;;;;;;8.18;75.02;100631.34;5116433;28;20035;-66
2022/10/20 06:54:53;;;;;;;1.80;1.27;;;;;;;8.25;74.96;100634.91;5116078;28;20043;-66
2022/10/20 06:57:22;;;;;;;0.35;0.35;;;;;;;8.23;74.78;100623.84;5116034;28;20040;-67
2022/10/20 06:59:50;;;;;;;0.65;0.65;;;;;;;8.22;74.65;100627.19;5115955;28;20500;-66
2022/10/20 07:02:20;;;;;;;0.60;0.60;;;;;;;8.41;74.62;100629.38;5116686;28;20485;-67
2022/10/20 07:04:49;;;;;;;0.68;0.68;;;;;;;8.54;74.22;100627.13;5116186;28;20039;-66
2022/10/20 07:07:19;;;;;;;1.20;1.10;;;;;;;8.63;74.44;100626.50;5116222;27;20077;-66
2022/10/20 07:09:48;;;;;;;0.57;0.50;;;;;;;8.71;74.34;100627.50;5115915;28;20071;-67
2022/10/20 07:12:16;;;;;;;1.02;0.95;;;;;;;8.87;73.48;100626.16;5115705;28;20039;-67
2022/10/20 07:14:45;;;;;;;0.82;0.82;;;;;;;8.91;74.16;100618.63;5115265;28;20380;-67
2022/10/20 07:17:14;;;;;;;2.17;1.80;;;;;;;9.02;73.93;100622.22;5106179;28;20044;-66
2022/10/20 07:19:42;;;;;;;1.52;1.42;;;;;;;9.16;74.49;100619.97;5100495;28;20046;-67
2022/10/20 07:22:11;;;;;;;1.67;1.57;;;;;;;9.26;73.09;100617.63;5115639;28;20036;-67
2022/10/20 07:24:41;;;;;;;0.95;0.90;;;;;;;9.34;73.92;100611.00;5106461;28;20145;-66
2022/10/20 07:27:10;;;;;;;1.33;1.00;;;;;;;9.44;73.19;100612.91;5101098;28;20044;-66
2022/10/20 07:29:38;;;;;;;1.80;1.00;;;;;;;9.62;73.93;100606.44;5098669;28;20493;-66
2022/10/20 07:32:07;;;;;;;1.17;0.73;;;;;;;9.85;73.77;100610.22;5095292;28;20094;-66
2022/10/20 07:34:36;;;;;;;0.45;0.45;;;;;;;9.99;73.34;100618.97;5094891;28;20044;-66
2022/10/20 07:37:04;;;;;;;1.95;1.63;;;;;;;10.08;72.77;100619.09;5093988;28;20040;-65
2022/10/20 07:39:33;;;;;;;1.25;1.15;;;;;;;10.06;72.28;100616.53;5094772;28;20059;-66
2022/10/20 07:42:04;;;;;;;1.20;0.90;;;;;;;10.23;71.59;100618.53;5094716;28;20136;-66
2022/10/20 07:44:32;;;;;;;1.23;1.10;;;;;;;10.40;71.65;100630.72;5093517;28;20055;-66
2022/10/20 07:47:01;;;;;;;0.90;0.82;;;;;;;10.49;70.89;100622.31;5096787;28;20036;-66
2022/10/20 07:49:29;;;;;;;1.35;0.98;;;;;;;10.53;70.18;100626.66;5103549;28;20043;-66
2022/10/20 07:52:15;;;;;;;2.38;2.13;;;;;;;10.68;70.28;100630.28;5103408;28;20047;-66
2022/10/20 07:54:44;;;;;;;1.48;1.35;;;;;;;10.78;69.89;100631.25;5115236;28;20044;-66
2022/10/20 07:57:14;;;;;;;0.50;0.50;;;;;;;10.85;69.79;100627.94;5114152;28;20044;-67
2022/10/20 07:59:42;;;;;;;0.60;0.60;;;;;;;10.94;69.19;100619.56;5102044;28;20061;-66
2022/10/20 08:02:12;;;;;;;0.85;0.80;;;;;;;11.02;68.94;100618.81;5103931;28;20044;-66
2022/10/20 08:04:42;;;;;;;1.40;1.30;;;;;;;11.13;68.57;100613.84;5094361;28;20387;-67
2022/10/20 08:07:11;;;;;;;0.50;0.50;;;;;;;11.21;68.33;100625.88;5106855;28;20048;-67
2022/10/20 08:09:40;;;;;;;1.25;1.08;;;;;;;11.28;67.66;100621.66;5114588;28;20051;-66
2022/10/20 08:12:09;;;;;;;0.98;0.95;;;;;;;11.32;67.24;100626.00;5107719;28;20063;-67
2022/10/20 08:14:40;;;;;;;9.10;1.55;;;;;;;11.36;66.99;100614.97;5097611;28;20040;-66
2022/10/20 08:17:08;;;;;;;2.35;1.60;;;;;;;11.52;66.78;100619.38;5094553;28;20044;-67
2022/10/20 08:19:37;;;;;;;1.38;1.27;;;;;;;11.65;66.32;100623.78;5097633;28;20048;-69
2022/10/20 08:22:32;;;;;;;1.65;1.38;;;;;;;11.70;65.18;100617.06;5097443;28;20578;-66
2022/10/20 08:25:01;;;;;;;0.68;0.68;;;;;;;11.74;64.61;100616.25;5094072;28;20040;-66
2022/10/20 08:27:30;;;;;;;0.52;0.52;;;;;;;11.77;64.25;100617.97;5094244;28;20043;-67
2022/10/20 08:30:01;;;;;;;0.73;0.73;;;;;;;11.85;64.16;100624.84;5094253;28;20127;-67
2022/10/20 08:32:51;;;;;;;1.42;1.20;;;;;;;11.88;63.46;100626.59;5094276;28;20507;-67
2022/10/20 08:35:20;;;;;;;0.82;0.82;;;;;;;11.88;62.86;100614.66;5093872;28;20048;-67
2022/10/20 08:37:49;;;;;;;0.50;0.50;;;;;;;11.98;62.76;100623.28;5093958;28;20509;-67
2022/10/20 08:40:23;;;;;;;0.67;0.67;;;;;;;12.18;62.76;100618.31;5094076;28;20280;-67
2022/10/20 08:42:52;;;;;;;0.80;0.80;;;;;;;12.18;61.58;100623.44;5093767;28;20323;-66
2022/10/20 08:45:24;;;;;;;1.40;1.20;;;;;;;12.13;60.32;100618.28;5096984;28;20036;-68
2022/10/20 08:47:55;;;;;;;1.27;1.17;;;;;;;12.21;60.58;100613.25;5093700;28;20040;-68
2022/10/20 08:50:26;;;;;;;5.25;1.67;;;;;;;12.28;60.21;100620.13;5092489;28;20563;-66
2022/10/20 08:52:59;;;;;;;0.50;0.50;;;;;;;12.34;60.18;100622.72;5093736;28;20139;-66
2022/10/20 08:55:30;;;;;;;1.20;0.47;;;;;;;12.42;60.04;100627.06;5093673;28;20052;-67
2022/10/20 08:58:03;;;;;;;0.68;0.68;;;;;;;12.63;60.52;100619.50;5093634;28;20066;-67
2022/10/20 09:00:38;;;;;;;3.17;1.30;;;;;;;12.86;60.04;100622.19;5093924;28;20048;-66
2022/10/20 09:03:15;;;;;;;1.52;1.27;;;;;;;13.15;60.35;100620.63;5093673;28;20036;-66
2022/10/20 09:05:49;;;;;;;1.10;0.88;;;;;;;13.14;59.51;100616.38;5093570;28;20097;-66
2022/10/20 09:08:30;;;;;;;1.15;0.70;;;;;;;13.18;58.65;100612.97;5094089;28;20052;-66
2022/10/20 09:11:01;;;;;;;0.75;0.70;;;;;;;13.24;57.83;100620.69;5096635;28;20050;-68
2022/10/20 09:13:32;;;;;;;0.90;0.90;;;;;;;13.25;57.69;100624.97;5096802;28;20054;-67
2022/10/20 09:16:08;;;;;;;0.80;0.80;;;;;;;13.34;57.75;100617.28;5097612;28;20058;-66
2022/10/20 09:18:46;;;;;;;1.27;1.17;;;;;;;13.58;56.97;100620.78;5097840;28;20109;-68
2022/10/20 09:21:17;;;;;;;;;;;;;;;13.75;57.41;100613.97;5097950;28;20048;-68
2022/10/20 09:23:51;;;;;;;0.98;0.98;;;;;;;13.92;57.45;100617.41;5097678;28;20432;-68
2022/10/20 09:26:22;;;;;;;1.05;0.95;;;;;;;13.97;56.91;100621.69;5109939;28;20062;-67
2022/10/20 09:29:13;;;;;;;0.93;0.80;;;;;;;13.99;56.00;100614.84;5118083;28;20039;-67
2022/10/20 09:31:46;;;;;;;0.60;0.60;;;;;;;13.96;55.63;100619.97;5118301;28;20392;-67
2022/10/20 09:34:25;;;;;;;0.60;0.60;;;;;;;14.02;56.21;100614.00;5117684;28;20053;-68
2022/10/20 09:36:58;;;;;;;;;;;;;;;14.15;55.28;100622.56;5118247;28;20108;-66
2022/10/20 09:39:31;;;;;;;0.30;0.30;;;;;;;14.25;55.03;100617.44;5117638;28;19941;-68
2022/10/20 09:42:04;;;;;;;1.00;0.98;;;;;;;14.27;55.25;100613.16;5117841;27;20070;-67
2022/10/20 09:44:39;;;;;;;1.75;1.02;;;;;;;14.33;54.38;100608.03;5117402;28;20055;-66
2022/10/20 09:47:14;;;;;;;0.50;0.50;;;;;;;14.38;54.88;100608.88;5117386;28;20047;-66
2022/10/20 09:49:45;;;;;;;0.70;0.60;;;;;;;14.51;54.88;100610.56;5111458;28;20486;-66
2022/10/20 09:52:18;;;;;;;1.67;1.50;;;;;;;14.76;54.34;100596.78;5096931;28;20127;-70
2022/10/20 09:54:49;;;;;;;0.68;0.68;;;;;;;15.04;54.70;100601.84;5096794;28;20047;-67
2022/10/20 09:57:21;;;;;;;0.45;0.45;;;;;;;15.06;54.40;100597.56;5110050;28;20051;-67
2022/10/20 09:59:54;;;;;;;1.20;1.10;;;;;;;15.02;53.81;100593.28;5117179;28;20047;-67
2022/10/20 10:02:31;;;;;;;2.00;1.30;;;;;;;15.14;53.79;100598.38;5117401;28;20051;-67
2022/10/20 10:05:19;;;;;;;0.60;0.60;;;;;;;15.30;53.44;100602.59;5117452;28;20113;-66
2022/10/20 10:07:59;;;;;;;0.70;0.70;;;;;;;15.36;53.13;100599.97;5117040;28;20068;-67
2022/10/20 10:10:30;;;;;;;0.40;0.40;;;;;;;15.36;52.00;100599.97;5104840;28;20131;-67
2022/10/20 10:13:03;;;;;;;1.10;1.00;;;;;;;15.27;51.49;100592.31;5096568;28;20052;-66
2022/10/20 10:15:38;;;;;;;0.47;0.47;;;;;;;15.37;51.27;100596.53;5110541;28;20043;-65
2022/10/20 10:18:20;;;;;;;0.50;0.50;;;;;;;15.31;51.32;100587.13;5110306;28;20101;-66
2022/10/20 10:20:58;;;;;;;0.75;0.75;;;;;;;15.30;51.20;100597.44;5095869;28;20048;-65
2022/10/20 10:23:29;;;;;;;0.80;0.80;;;;;;;15.21;51.43;100589.78;5095275;28;20048;-67
2022/10/20 10:25:58;;;;;;;0.60;0.60;;;;;;;15.16;51.47;100582.09;5096054;28;20486;-65
2022/10/20 10:28:36;;;;;;;1.52;0.88;;;;;;;15.23;51.47;100577.75;5095703;28;20047;-66
2022/10/20 10:31:19;;;;;;;0.60;0.60;;;;;;;15.37;51.51;100570.81;5096518;28;20040;-65
2022/10/20 10:33:52;;;;;;;0.70;0.70;;;;;;;15.41;50.26;100567.34;5095716;28;20040;-66
2022/10/20 10:36:33;;;;;;;1.25;0.70;;;;;;;15.45;50.30;100566.53;5096092;28;20048;-64
2022/10/20 10:39:02;;;;;;;0.40;0.40;;;;;;;15.48;50.63;100556.19;5095739;28;20032;-67
2022/10/20 10:41:48;;;;;;;0.75;0.70;;;;;;;15.57;51.12;100557.88;5108674;28;20124;-66
2022/10/20 10:44:31;;;;;;;0.52;0.52;;;;;;;15.75;50.49;100553.44;5116609;28;20040;-67
2022/10/20 10:47:08;;;;;;;0.65;0.50;;;;;;;15.83;49.66;100556.81;5115251;28;20055;-65
2022/10/20 10:49:53;;;;;;;0.35;0.35;;;;;;;15.81;49.84;100553.38;5116556;27;20039;-66
2022/10/20 10:52:34;;;;;;;0.88;0.88;;;;;;;15.76;49.08;100549.16;5115105;28;20062;-66
2022/10/20 10:55:15;;;;;;;0.60;0.60;;;;;;;15.69;48.92;100543.16;5116327;28;20039;-65
2022/10/20 10:58:12;;;;;;;0.50;0.50;;;;;;;15.69;49.76;100550.88;5115900;28;20036;-67
2022/10/20 11:00:51;;;;;;;0.45;0.45;;;;;;;15.72;50.41;100543.16;5115873;28;20047;-66
2022/10/20 11:03:41;;;;;;;3.25;1.67;;;;;;;15.76;49.78;100544.84;5116176;28;20047;-65
2022/10/20 11:06:21;;;;;;;0.60;0.60;;;;;;;15.66;49.99;100538.06;5115988;28;20051;-66
2022/10/20 11:09:05;;;;;;;0.45;0.45;;;;;;;15.57;50.29;100537.28;5116108;28;20051;-65
2022/10/20 11:11:45;;;;;;;0.63;0.52;;;;;;;15.58;50.44;100529.53;5106447;28;20048;-66
2022/10/20 11:14:23;;;;;;;0.88;0.88;;;;;;;15.62;50.64;100526.06;5095567;28;20094;-66
2022/10/20 11:17:07;;;;;;;1.55;0.80;;;;;;;15.66;50.93;100535.50;5095402;28;20044;-66
2022/10/20 11:19:51;;;;;;;0.80;0.73;;;;;;;15.65;50.86;100520.91;5115681;28;20062;-67
2022/10/20 11:22:33;;;;;;;0.75;0.73;;;;;;;15.72;51.03;100514.84;5114606;28;20043;-67
2022/10/20 11:25:14;;;;;;;0.55;0.55;;;;;;;15.78;50.19;100521.66;5114282;28;20050;-65
2022/10/20 11:27:42;;;;;;;0.88;0.88;;;;;;;15.68;49.98;100515.72;5106034;28;20059;-67
2022/10/20 11:30:18;;;;;;;0.80;0.80;;;;;;;15.79;50.58;100513.06;5097658;28;20051;-69
2022/10/20 11:32:53;;;;;;;1.50;0.82;;;;;;;15.80;49.81;100515.63;5093862;28;20052;-67
2022/10/20 11:35:31;;;;;;;1.35;0.95;;;;;;;15.82;50.02;100513.03;5095516;28;20072;-68
2022/10/20 11:38:18;;;;;;;0.50;0.50;;;;;;;15.90;49.82;100501.81;5095154;28;20047;-67
2022/10/20 11:40:53;;;;;;;1.23;1.13;;;;;;;15.83;48.87;100500.16;5095182;28;20486;-65
2022/10/20 11:43:29;;;;;;;0.40;0.40;;;;;;;15.97;49.71;100498.31;5094714;28;20051;-66
2022/10/20 11:46:04;;;;;;;0.50;0.50;;;;;;;15.90;49.81;100496.66;5095311;28;20089;-67
2022/10/20 11:48:39;;;;;;;0.90;0.85;;;;;;;15.88;49.82;100495.81;5095081;28;20044;-66
2022/10/20 11:51:28;;;;;;;0.68;0.68;;;;;;;15.97;49.65;100493.16;5094915;28;20048;-66
2022/10/20 11:54:23;;;;;;;0.70;0.70;;;;;;;16.02;49.60;100486.25;5098971;28;20070;-67
2022/10/20 11:57:09;;;;;;;0.85;0.85;;;;;;;16.15;49.44;100486.13;5114656;28;20097;-67